Time;durP1;ratioP1;P1;durP2;ratioP2;P2;SDS_P1;SDS_P2;PMS_P1;PMS_P2;Temp;Humidity;BMP_temperature;BMP_pressure;BME280_temperature;BME280_humidity;BME280_pressure;Samples;Min_cycle;Max_cycle;Signal;HPM_P1;HPM_P2
2022/01/17 00:02:24;;;;;;;29.60;21.30;;;6.00;54.30;;;;;;6284749;28;20338;-56
2022/01/17 00:05:28;;;;;;;30.97;22.50;;;6.00;54.80;;;;;;6284939;28;20252;-60
2022/01/17 00:08:31;;;;;;;34.27;23.83;;;6.00;54.20;;;;;;6284355;28;20805;-55
2022/01/17 00:11:34;;;;;;;33.10;22.53;;;6.20;54.60;;;;;;6282083;28;20241;-56
2022/01/17 00:14:41;;;;;;;30.80;22.30;;;6.20;54.30;;;;;;6281282;28;20267;-56
2022/01/17 00:17:48;;;;;;;29.87;20.70;;;6.10;54.20;;;;;;6281158;28;20623;-58
2022/01/17 00:20:51;;;;;;;27.97;20.87;;;6.30;53.50;;;;;;6278145;28;20722;-57
2022/01/17 00:23:53;;;;;;;23.60;19.40;;;6.30;53.20;;;;;;6281252;28;20240;-57
2022/01/17 00:26:56;;;;;;;24.70;19.73;;;6.20;53.50;;;;;;6281474;28;20225;-56
2022/01/17 00:30:03;;;;;;;27.90;18.37;;;6.10;52.30;;;;;;6277851;28;20679;-60
2022/01/17 00:33:06;;;;;;;24.80;18.17;;;6.20;52.10;;;;;;6284737;28;20407;-57
2022/01/17 00:36:09;;;;;;;23.87;18.17;;;6.30;51.80;;;;;;6282250;28;20248;-57
2022/01/17 00:39:11;;;;;;;23.77;18.37;;;6.30;51.30;;;;;;6285213;28;20358;-56
2022/01/17 00:42:14;;;;;;;22.70;16.47;;;6.30;51.10;;;;;;6280521;28;20233;-57
2022/01/17 00:45:24;;;;;;;25.97;16.23;;;6.10;51.00;;;;;;6282085;28;20302;-59
2022/01/17 00:48:27;;;;;;;23.80;16.70;;;6.20;49.50;;;;;;6281308;28;20446;-57
2022/01/17 00:51:30;;;;;;;21.10;16.60;;;6.10;48.90;;;;;;6281213;28;20255;-57
2022/01/17 00:54:33;;;;;;;24.30;16.77;;;6.60;48.80;;;;;;6278325;28;20407;-57
2022/01/17 00:57:36;;;;;;;25.83;16.40;;;6.30;48.70;;;;;;6279357;28;20233;-57
2022/01/17 01:00:41;;;;;;;24.57;16.43;;;6.30;47.80;;;;;;6279281;28;20243;-58
2022/01/17 01:03:44;;;;;;;21.40;15.23;;;6.50;47.00;;;;;;6277611;28;20230;-56
2022/01/17 01:06:47;;;;;;;22.63;15.63;;;6.40;47.20;;;;;;6277547;28;20237;-57
2022/01/17 01:10:00;;;;;;;20.30;15.07;;;6.50;47.20;;;;;;6281203;28;20301;-55
2022/01/17 01:13:03;;;;;;;21.27;15.43;;;6.40;47.10;;;;;;6276050;28;20290;-58
2022/01/17 01:16:23;;;;;;;17.83;14.13;;;6.40;47.40;;;;;;6279221;28;20251;-58
2022/01/17 01:19:38;;;;;;;19.70;14.10;;;6.40;46.00;;;;;;6271374;28;20301;-57
2022/01/17 01:29:23;;;;;;;15.53;13.83;;;6.30;45.00;;;;;;6275588;28;20248;-58
2022/01/17 01:32:34;;;;;;;15.67;12.83;;;6.40;44.40;;;;;;6278836;28;20370;-58
2022/01/17 01:35:44;;;;;;;18.47;12.80;;;6.60;45.00;;;;;;6281046;28;20373;-55
2022/01/17 01:38:47;;;;;;;13.17;11.87;;;5.90;43.20;;;;;;6284060;28;20224;-58
2022/01/17 01:41:51;;;;;;;15.20;11.60;;;6.50;43.60;;;;;;6277904;28;20553;-58
2022/01/17 01:44:54;;;;;;;14.10;10.70;;;6.60;44.40;;;;;;6281141;28;20226;-57
2022/01/17 01:47:58;;;;;;;12.97;10.10;;;6.50;43.90;;;;;;6272020;28;20228;-58
2022/01/17 01:51:01;;;;;;;14.37;11.07;;;6.50;43.80;;;;;;6278386;28;20313;-57
2022/01/17 01:54:07;;;;;;;11.20;8.80;;;6.50;43.80;;;;;;6276527;28;20370;-58
2022/01/17 01:57:10;;;;;;;15.67;8.13;;;6.50;40.70;;;;;;6277031;28;20237;-57
2022/01/17 02:00:15;;;;;;;8.77;7.00;;;6.50;36.40;;;;;;6278815;28;20855;-58
2022/01/17 02:03:20;;;;;;;10.77;6.87;;;6.90;37.00;;;;;;6278536;28;20256;-55
2022/01/17 02:06:23;;;;;;;8.33;6.23;;;6.60;36.00;;;;;;6282144;28;20241;-57
2022/01/17 02:09:26;;;;;;;9.07;6.23;;;6.60;39.00;;;;;;6282615;28;20245;-56
2022/01/17 02:12:29;;;;;;;9.63;6.60;;;6.60;40.80;;;;;;6279683;28;20260;-56
2022/01/17 02:15:31;;;;;;;6.17;5.03;;;6.60;41.50;;;;;;6279347;28;20389;-57
2022/01/17 02:18:36;;;;;;;5.63;4.83;;;6.30;41.80;;;;;;6278575;28;20298;-56
2022/01/17 02:21:46;;;;;;;5.80;4.73;;;6.10;41.20;;;;;;6265014;28;20283;-51
2022/01/17 02:24:49;;;;;;;8.70;5.00;;;5.90;40.80;;;;;;6276508;28;20237;-58
2022/01/17 02:27:51;;;;;;;12.10;4.40;;;6.00;43.30;;;;;;6277049;28;20320;-57
2022/01/17 02:30:54;;;;;;;6.63;3.87;;;5.90;37.80;;;;;;6274466;28;20714;-57
2022/01/17 02:33:57;;;;;;;5.87;4.47;;;5.80;34.90;;;;;;6277464;28;20786;-57
2022/01/17 02:37:01;;;;;;;4.13;3.83;;;5.80;36.40;;;;;;6275338;28;20237;-58
2022/01/17 02:40:04;;;;;;;5.40;3.80;;;5.90;32.00;;;;;;6277902;28;20407;-56
2022/01/17 02:43:08;;;;;;;9.87;4.30;;;5.80;31.20;;;;;;6278822;28;20237;-56
2022/01/17 02:46:26;;;;;;;8.10;4.07;;;5.90;30.00;;;;;;6276272;28;20259;-57
2022/01/17 02:49:28;;;;;;;4.33;3.60;;;6.00;27.00;;;;;;6276991;28;20298;-57
2022/01/17 02:52:32;;;;;;;6.87;4.10;;;6.00;27.40;;;;;;6274628;28;20380;-58
2022/01/17 02:55:36;;;;;;;7.40;3.70;;;6.00;25.60;;;;;;6276122;28;20367;-55
2022/01/17 02:58:40;;;;;;;6.90;4.00;;;6.10;26.00;;;;;;6281818;28;20311;-56
2022/01/17 03:01:43;;;;;;;6.97;4.20;;;6.30;25.80;;;;;;6281340;28;20327;-58
2022/01/17 03:04:46;;;;;;;5.13;3.90;;;6.10;23.60;;;;;;6278793;28;20301;-57
2022/01/17 03:07:50;;;;;;;8.07;3.80;;;6.10;23.60;;;;;;6281118;28;20316;-58
2022/01/17 03:10:55;;;;;;;11.23;4.37;;;6.30;22.10;;;;;;6281798;28;20258;-57
2022/01/17 03:13:58;;;;;;;3.93;3.30;;;6.30;21.90;;;;;;6272603;28;20627;-56
2022/01/17 03:17:01;;;;;;;7.20;4.03;;;6.20;20.90;;;;;;6280494;28;20233;-56
2022/01/17 03:20:05;;;;;;;5.33;3.90;;;6.20;20.30;;;;;;6279070;28;20850;-57
2022/01/17 03:23:10;;;;;;;9.17;4.30;;;6.40;21.70;;;;;;6278561;28;20383;-57
2022/01/17 03:26:12;;;;;;;9.53;4.73;;;6.40;19.10;;;;;;6285315;28;20344;-58
2022/01/17 03:29:15;;;;;;;11.87;3.70;;;6.20;19.20;;;;;;6279311;28;20619;-56
2022/01/17 03:32:18;;;;;;;6.50;3.80;;;6.40;18.50;;;;;;6280551;28;20654;-57
2022/01/17 03:35:21;;;;;;;4.80;4.00;;;6.40;16.70;;;;;;6282122;28;20293;-58
2022/01/17 03:38:27;;;;;;;5.10;4.57;;;6.40;17.80;;;;;;6285038;28;20328;-58
2022/01/17 03:41:30;;;;;;;6.30;3.90;;;6.40;18.00;;;;;;6281052;28;20835;-55
2022/01/17 03:44:33;;;;;;;10.20;4.10;;;6.40;17.10;;;;;;6280952;28;20290;-57
2022/01/17 03:47:36;;;;;;;7.67;3.90;;;6.40;16.90;;;;;;6284547;28;20237;-56
2022/01/17 03:50:39;;;;;;;7.50;3.97;;;6.20;17.90;;;;;;6278691;28;20264;-57
2022/01/17 03:53:43;;;;;;;10.40;4.30;;;6.30;18.00;;;;;;6280710;28;20375;-57
2022/01/17 03:56:46;;;;;;;10.97;4.13;;;6.30;18.70;;;;;;6281726;28;20317;-58
2022/01/17 03:59:48;;;;;;;9.13;4.07;;;6.50;19.00;;;;;;6278523;28;20301;-57
2022/01/17 04:02:52;;;;;;;4.10;3.70;;;6.40;18.60;;;;;;6281593;28;20241;-57
2022/01/17 04:05:56;;;;;;;14.80;4.30;;;6.30;18.00;;;;;;6280672;28;20236;-56
2022/01/17 04:09:00;;;;;;;9.30;4.67;;;6.40;18.30;;;;;;6276383;28;20444;-57
2022/01/17 04:12:03;;;;;;;9.77;4.40;;;6.20;18.10;;;;;;6279685;28;20646;-56
2022/01/17 04:15:07;;;;;;;8.20;4.53;;;6.20;17.90;;;;;;6283375;28;20328;-56
2022/01/17 04:18:11;;;;;;;7.10;4.13;;;6.30;19.00;;;;;;6280191;28;20479;-57
2022/01/17 04:21:14;;;;;;;8.20;4.00;;;6.10;18.80;;;;;;6283403;28;20289;-58
2022/01/17 04:24:17;;;;;;;7.77;3.80;;;6.50;20.00;;;;;;6279561;28;20237;-58
2022/01/17 04:27:20;;;;;;;11.87;4.10;;;6.20;20.00;;;;;;6279901;28;20237;-58
2022/01/17 04:30:24;;;;;;;7.07;4.20;;;6.40;21.10;;;;;;6277359;28;20323;-57
2022/01/17 04:33:26;;;;;;;8.50;4.40;;;6.40;21.60;;;;;;6265513;28;20443;-58
2022/01/17 04:36:29;;;;;;;10.20;4.27;;;6.20;22.10;;;;;;6275614;28;20229;-58
2022/01/17 04:39:34;;;;;;;7.20;4.40;;;6.40;23.70;;;;;;6280903;28;20285;-57
2022/01/17 04:42:43;;;;;;;15.30;4.67;;;6.10;24.20;;;;;;6282997;28;20324;-56
2022/01/17 04:45:47;;;;;;;9.77;4.43;;;6.10;25.00;;;;;;6278726;28;20359;-59
2022/01/17 04:48:50;;;;;;;8.70;4.57;;;6.10;25.30;;;;;;6278222;28;20241;-56
2022/01/17 04:51:54;;;;;;;8.90;3.93;;;6.20;25.70;;;;;;6278919;28;20241;-58
2022/01/17 04:55:01;;;;;;;10.37;4.60;;;6.20;26.40;;;;;;6276422;28;20267;-56
2022/01/17 04:58:06;;;;;;;6.57;3.90;;;6.20;27.00;;;;;;6276012;28;21026;-57
2022/01/17 05:01:08;;;;;;;8.67;3.90;;;6.40;27.10;;;;;;6277734;28;20238;-57
2022/01/17 05:04:11;;;;;;;9.13;4.53;;;6.20;27.60;;;;;;6277932;28;20627;-56
2022/01/17 05:07:15;;;;;;;9.07;3.97;;;6.10;28.30;;;;;;6280666;28;20805;-56
2022/01/17 05:10:21;;;;;;;9.10;4.40;;;6.20;28.80;;;;;;6279327;28;20402;-56
2022/01/17 05:13:31;;;;;;;14.47;4.70;;;6.10;29.60;;;;;;6278582;28;20391;-56
2022/01/17 05:16:38;;;;;;;5.97;4.43;;;6.00;29.00;;;;;;6281965;28;20229;-57
2022/01/17 05:19:52;;;;;;;8.63;4.10;;;6.10;28.90;;;;;;6277762;28;20457;-58
2022/01/17 05:22:55;;;;;;;7.77;4.57;;;6.20;28.70;;;;;;6278682;28;20778;-59
2022/01/17 05:25:59;;;;;;;10.40;4.57;;;6.10;28.80;;;;;;6277577;28;20470;-58
2022/01/17 05:29:02;;;;;;;8.53;4.33;;;6.00;28.90;;;;;;6276196;28;20370;-57
2022/01/17 05:32:06;;;;;;;10.23;4.73;;;6.10;28.50;;;;;;6275692;28;20314;-57
2022/01/17 05:35:10;;;;;;;13.07;4.17;;;6.30;29.30;;;;;;6277406;28;20320;-58
2022/01/17 05:38:12;;;;;;;8.73;4.40;;;6.20;28.50;;;;;;6280623;28;20235;-57
2022/01/17 05:41:16;;;;;;;8.40;4.00;;;6.40;28.60;;;;;;6277770;28;20292;-57
2022/01/17 05:44:19;;;;;;;8.30;4.47;;;6.20;29.40;;;;;;6279280;28;20294;-57
2022/01/17 05:47:22;;;;;;;7.77;4.20;;;6.30;29.60;;;;;;6277736;28;20249;-56
2022/01/17 05:50:25;;;;;;;9.63;4.47;;;6.30;30.00;;;;;;6279350;28;20237;-57
2022/01/17 05:53:27;;;;;;;10.57;4.17;;;6.10;30.20;;;;;;6277462;28;20328;-59
2022/01/17 05:56:32;;;;;;;8.23;4.50;;;6.30;29.50;;;;;;6278683;28;20297;-57
2022/01/17 05:59:36;;;;;;;4.67;3.93;;;6.30;29.70;;;;;;6279665;28;20229;-56
2022/01/17 06:02:42;;;;;;;9.60;4.10;;;6.40;30.00;;;;;;6281994;28;20282;-57
2022/01/17 06:05:44;;;;;;;7.13;4.33;;;6.30;29.90;;;;;;6278861;28;20674;-57
2022/01/17 06:08:47;;;;;;;8.23;3.83;;;6.70;30.00;;;;;;6278411;28;20252;-57
2022/01/17 06:11:51;;;;;;;6.83;3.90;;;6.20;31.30;;;;;;6276592;28;20313;-57
2022/01/17 06:14:54;;;;;;;7.87;4.13;;;6.30;31.60;;;;;;6277691;28;20327;-59
2022/01/17 06:17:57;;;;;;;10.23;4.60;;;6.30;31.60;;;;;;6277727;28;20229;-58
2022/01/17 06:20:59;;;;;;;6.97;3.90;;;6.50;33.60;;;;;;6277806;28;20367;-58
2022/01/17 06:24:04;;;;;;;11.50;4.37;;;6.40;34.60;;;;;;6277728;28;20232;-56
2022/01/17 06:27:08;;;;;;;6.33;4.17;;;6.10;35.90;;;;;;6277023;28;20557;-53
2022/01/17 06:30:13;;;;;;;6.00;4.10;;;6.30;38.60;;;;;;6280346;28;20611;-58
2022/01/17 06:33:16;;;;;;;10.67;4.60;;;6.20;41.20;;;;;;6282875;28;20241;-57
2022/01/17 06:36:18;;;;;;;8.80;4.30;;;6.30;43.60;;;;;;6284312;28;20328;-59
2022/01/17 06:39:21;;;;;;;8.17;4.37;;;6.30;45.50;;;;;;6284424;28;20693;-58
2022/01/17 06:42:26;;;;;;;17.00;4.60;;;6.20;45.80;;;;;;6280009;28;20398;-59
2022/01/17 06:45:28;;;;;;;10.10;4.47;;;6.00;46.50;;;;;;6280193;28;20320;-57
2022/01/17 06:48:31;;;;;;;5.93;4.43;;;6.30;48.00;;;;;;6282888;28;20237;-56
2022/01/17 06:51:34;;;;;;;6.57;3.73;;;6.30;49.00;;;;;;6279776;28;21005;-58
2022/01/17 06:54:37;;;;;;;6.83;4.27;;;6.10;50.40;;;;;;6282360;28;20328;-58
2022/01/17 06:57:41;;;;;;;5.77;3.90;;;5.80;50.20;;;;;;6284204;28;20486;-57
2022/01/17 07:00:44;;;;;;;9.03;3.80;;;6.00;50.30;;;;;;6292447;28;20236;-58
2022/01/17 07:03:48;;;;;;;8.00;4.10;;;5.80;50.10;;;;;;6284850;28;20225;-56
2022/01/17 07:06:51;;;;;;;4.10;3.70;;;5.90;50.50;;;;;;6285513;28;20229;-59
2022/01/17 07:09:53;;;;;;;6.67;4.10;;;5.80;51.10;;;;;;6286144;28;20793;-57
2022/01/17 07:12:57;;;;;;;8.83;3.60;;;5.80;51.90;;;;;;6283426;28;20236;-58
2022/01/17 07:16:00;;;;;;;7.53;4.20;;;6.10;52.30;;;;;;6291557;28;20247;-58
2022/01/17 07:19:03;;;;;;;6.20;3.80;;;5.90;52.70;;;;;;6283617;28;20592;-58
2022/01/17 07:22:06;;;;;;;4.63;3.47;;;5.80;52.90;;;;;;6287895;28;20245;-58
2022/01/17 07:25:13;;;;;;;7.57;3.90;;;5.80;52.90;;;;;;6279750;28;20233;-58
2022/01/17 07:28:17;;;;;;;10.17;4.00;;;5.90;53.00;;;;;;6279864;28;20319;-57
2022/01/17 07:31:20;;;;;;;9.73;3.93;;;6.00;52.70;;;;;;6279547;28;20651;-57
2022/01/17 07:34:24;;;;;;;5.13;3.70;;;5.90;52.30;;;;;;6281967;28;20233;-58
2022/01/17 07:37:26;;;;;;;8.07;4.03;;;5.90;52.20;;;;;;6273103;28;20246;-52
2022/01/17 07:40:29;;;;;;;6.53;4.00;;;6.20;51.40;;;;;;6288583;28;20229;-59
2022/01/17 07:43:33;;;;;;;4.10;3.77;;;6.10;51.20;;;;;;6280854;28;20229;-57
2022/01/17 07:46:47;;;;;;;7.70;3.87;;;6.00;50.30;;;;;;6290858;28;20239;-58
2022/01/17 07:49:50;;;;;;;7.20;4.00;;;6.10;51.00;;;;;;6285095;28;20283;-57
2022/01/17 07:53:09;;;;;;;7.27;4.33;;;6.00;50.20;;;;;;6292473;28;20245;-56
2022/01/17 07:56:11;;;;;;;8.73;4.07;;;6.10;50.30;;;;;;6287020;28;20662;-57
2022/01/17 07:59:16;;;;;;;4.77;3.90;;;6.10;50.30;;;;;;6286069;28;20307;-58
2022/01/17 08:02:18;;;;;;;4.27;3.87;;;6.20;50.50;;;;;;6290609;28;20241;-58
2022/01/17 08:05:21;;;;;;;4.10;3.73;;;6.10;50.40;;;;;;6287335;28;20237;-58
2022/01/17 08:08:24;;;;;;;7.37;4.57;;;6.10;50.40;;;;;;6288958;28;20743;-56
2022/01/17 08:11:27;;;;;;;7.83;4.10;;;6.20;51.50;;;;;;6286278;28;20230;-58
2022/01/17 08:14:31;;;;;;;6.00;3.90;;;6.00;52.20;;;;;;6285303;28;22660;-58
2022/01/17 08:17:33;;;;;;;5.93;4.07;;;6.30;51.70;;;;;;6289069;28;20268;-57
2022/01/17 08:20:36;;;;;;;4.13;3.70;;;6.10;52.60;;;;;;6281993;28;20328;-59
2022/01/17 08:23:39;;;;;;;8.93;4.23;;;6.10;52.90;;;;;;6290595;28;20308;-58
2022/01/17 08:26:43;;;;;;;6.93;4.20;;;6.30;53.50;;;;;;6283868;28;20738;-58
2022/01/17 08:29:47;;;;;;;8.10;4.97;;;6.10;53.80;;;;;;6262122;28;20800;-57
2022/01/17 08:33:10;;;;;;;10.47;4.50;;;6.30;53.70;;;;;;6286485;28;20247;-57
2022/01/17 08:36:14;;;;;;;7.13;4.00;;;6.30;53.70;;;;;;6282114;28;20241;-57
2022/01/17 08:39:20;;;;;;;5.07;3.93;;;6.20;53.70;;;;;;6277841;28;20618;-57
2022/01/17 08:42:23;;;;;;;4.40;3.37;;;6.10;53.20;;;;;;6283993;28;20244;-58
2022/01/17 08:45:28;;;;;;;3.80;3.50;;;6.40;53.20;;;;;;6284718;28;20347;-58
2022/01/17 08:48:46;;;;;;;3.67;3.57;;;6.30;53.50;;;;;;6269999;28;20225;-57
2022/01/17 08:51:49;;;;;;;3.90;3.67;;;6.50;53.30;;;;;;6283601;28;20237;-55
2022/01/17 08:54:53;;;;;;;3.77;3.60;;;6.30;53.30;;;;;;6283174;28;20244;-57
2022/01/17 08:57:58;;;;;;;7.43;3.77;;;6.60;52.70;;;;;;6283930;28;20229;-58
2022/01/17 09:01:02;;;;;;;4.10;3.73;;;6.50;53.20;;;;;;6284799;28;21040;-57
2022/01/17 09:04:05;;;;;;;3.83;3.63;;;6.60;52.80;;;;;;6284387;28;20721;-57
2022/01/17 09:07:09;;;;;;;7.10;3.50;;;6.40;52.80;;;;;;6279811;28;20253;-58
2022/01/17 09:10:12;;;;;;;4.40;4.00;;;6.40;53.80;;;;;;6280296;28;20474;-58
2022/01/17 09:13:18;;;;;;;4.23;3.83;;;6.40;54.10;;;;;;6277104;28;20233;-56
2022/01/17 09:16:22;;;;;;;4.70;3.60;;;6.60;54.40;;;;;;6277983;28;20718;-56
2022/01/17 09:19:25;;;;;;;3.90;3.60;;;6.60;55.10;;;;;;6282047;28;20233;-56
2022/01/17 09:22:29;;;;;;;4.10;3.90;;;6.40;55.30;;;;;;6279295;28;20396;-55
2022/01/17 09:25:32;;;;;;;5.53;3.97;;;6.40;56.30;;;;;;6282912;28;20237;-60
2022/01/17 09:28:35;;;;;;;4.00;3.57;;;6.40;56.60;;;;;;6278109;28;20237;-57
2022/01/17 09:31:39;;;;;;;4.37;3.50;;;6.40;56.70;;;;;;6282819;28;20608;-56
2022/01/17 09:34:42;;;;;;;5.77;3.30;;;6.40;56.90;;;;;;6284939;28;20824;-54
2022/01/17 09:37:45;;;;;;;3.70;3.40;;;6.60;57.40;;;;;;6289597;28;20286;-56
2022/01/17 09:40:48;;;;;;;4.37;3.70;;;6.60;57.30;;;;;;6282257;28;20314;-57
2022/01/17 09:44:11;;;;;;;4.37;3.70;;;6.60;57.80;;;;;;6280553;28;20237;-56
2022/01/17 09:47:17;;;;;;;3.77;3.53;;;6.40;57.90;;;;;;6281322;28;20475;-55
2022/01/17 09:50:31;;;;;;;4.20;3.80;;;6.60;58.00;;;;;;6281788;28;20237;-57
2022/01/17 09:53:38;;;;;;;3.43;3.33;;;6.50;58.30;;;;;;6274694;28;20678;-55
2022/01/17 09:56:41;;;;;;;3.50;3.17;;;6.60;58.10;;;;;;6281834;28;20230;-58
2022/01/17 09:59:44;;;;;;;3.53;3.20;;;6.50;57.70;;;;;;6279964;28;20311;-55
2022/01/17 10:02:49;;;;;;;3.23;2.90;;;6.40;50.60;;;;;;6280120;28;20233;-55
2022/01/17 10:05:53;;;;;;;3.10;2.90;;;6.20;46.70;;;;;;6287297;28;20579;-54
2022/01/17 10:09:10;;;;;;;5.93;3.27;;;6.10;45.70;;;;;;6281127;28;20325;-57
2022/01/17 10:12:15;;;;;;;3.50;3.20;;;6.10;46.90;;;;;;6265294;28;20272;-55
2022/01/17 10:15:25;;;;;;;3.90;3.20;;;6.10;48.60;;;;;;6271051;28;20237;-57
2022/01/17 10:18:36;;;;;;;4.50;3.20;;;6.40;47.10;;;;;;6276529;28;20359;-55
2022/01/17 10:21:43;;;;;;;8.97;3.50;;;6.20;47.30;;;;;;6271077;28;20229;-56
2022/01/17 10:24:57;;;;;;;5.33;3.47;;;6.60;46.20;;;;;;6275084;28;20715;-59
2022/01/17 10:28:37;;;;;;;5.93;3.50;;;6.40;44.10;;;;;;6271273;28;20748;-55
2022/01/17 10:35:15;;;;;;;5.10;3.30;;;6.60;44.30;;;;;;6272620;28;20242;-56
2022/01/17 10:38:21;;;;;;;3.63;3.13;;;6.70;40.80;;;;;;6288016;28;20286;-56
2022/01/17 10:41:26;;;;;;;7.10;3.53;;;6.70;40.00;;;;;;6281428;28;20479;-56
2022/01/17 10:44:36;;;;;;;5.07;3.63;;;6.70;39.10;;;;;;6281493;28;20229;-56
2022/01/17 10:47:43;;;;;;;5.43;3.33;;;6.90;37.40;;;;;;6277779;28;20678;-54
2022/01/17 10:50:50;;;;;;;3.83;3.33;;;7.00;38.50;;;;;;6281694;28;20229;-57
2022/01/17 10:53:55;;;;;;;6.23;3.90;;;6.80;37.80;;;;;;6278049;28;20240;-57
2022/01/17 10:56:58;;;;;;;5.67;3.80;;;6.70;36.70;;;;;;6281464;28;20236;-54
2022/01/17 11:00:01;;;;;;;7.23;4.10;;;6.80;36.50;;;;;;6286291;28;20447;-56
2022/01/17 11:03:06;;;;;;;5.63;3.73;;;6.70;35.00;;;;;;6279752;28;20232;-56
2022/01/17 11:06:13;;;;;;;11.07;4.17;;;6.70;26.50;;;;;;6281603;28;20621;-58
2022/01/17 11:09:15;;;;;;;3.97;3.57;;;6.60;26.00;;;;;;6281546;28;20237;-57
2022/01/17 11:12:19;;;;;;;4.07;3.70;;;6.50;22.60;;;;;;6278610;28;20237;-56
2022/01/17 11:15:24;;;;;;;4.50;3.10;;;6.30;23.70;;;;;;6293891;28;20233;-56
2022/01/17 11:18:29;;;;;;;5.33;3.63;;;6.30;21.70;;;;;;6280932;28;20329;-56
2022/01/17 11:21:33;;;;;;;5.53;3.80;;;5.90;23.60;;;;;;6277626;28;20552;-57
2022/01/17 11:24:37;;;;;;;4.77;4.17;;;5.90;22.80;;;;;;6278706;28;20260;-55
2022/01/17 11:27:41;;;;;;;7.13;5.40;;;5.70;25.60;;;;;;6284626;28;20770;-55
2022/01/17 11:30:45;;;;;;;5.53;5.03;;;5.50;26.10;;;;;;6285570;28;20229;-56
2022/01/17 11:33:48;;;;;;;7.13;4.63;;;5.20;26.30;;;;;;6279209;28;20230;-57
2022/01/17 11:36:54;;;;;;;4.50;4.10;;;5.20;27.50;;;;;;6290018;28;20239;-55
2022/01/17 11:39:59;;;;;;;5.93;4.40;;;4.70;28.70;;;;;;6286821;28;20828;-57
2022/01/17 11:43:15;;;;;;;4.93;4.13;;;4.70;29.30;;;;;;6285736;28;20237;-57
2022/01/17 11:46:27;;;;;;;6.40;4.20;;;4.60;29.10;;;;;;6266376;28;20542;-59
2022/01/17 11:49:34;;;;;;;5.43;4.97;;;4.50;31.00;;;;;;6285944;28;20354;-57
2022/01/17 11:52:39;;;;;;;9.27;4.53;;;4.30;31.20;;;;;;6289566;28;20320;-55
2022/01/17 11:55:46;;;;;;;5.40;4.13;;;4.30;32.40;;;;;;6280600;28;20318;-57
2022/01/17 11:58:49;;;;;;;8.00;4.40;;;4.10;30.70;;;;;;6281463;28;20233;-56
2022/01/17 12:02:14;;;;;;;6.63;4.50;;;4.20;31.20;;;;;;6284641;28;20241;-57
2022/01/17 12:05:44;;;;;;;8.70;4.30;;;4.20;30.70;;;;;;6279989;28;20237;-57
2022/01/17 12:08:49;;;;;;;10.27;4.50;;;4.20;28.70;;;;;;6284017;28;20310;-56
2022/01/17 12:12:12;;;;;;;9.10;5.07;;;4.10;27.50;;;;;;6281160;28;20225;-56
2022/01/17 12:15:17;;;;;;;7.27;4.50;;;4.30;25.40;;;;;;6289019;28;20232;-55
2022/01/17 12:18:31;;;;;;;6.73;4.43;;;4.20;24.60;;;;;;6277953;28;20238;-55
2022/01/17 12:21:34;;;;;;;5.10;3.80;;;4.10;22.20;;;;;;6276979;28;20505;-55
2022/01/17 12:24:41;;;;;;;6.00;4.43;;;4.30;19.60;;;;;;6282603;28;20240;-56
2022/01/17 12:27:46;;;;;;;6.43;4.23;;;4.40;15.90;;;;;;6282017;28;20578;-56
2022/01/17 12:30:51;;;;;;;4.40;4.10;;;4.60;11.70;;;;;;6277617;28;20387;-56
2022/01/17 12:34:18;;;;;;;5.13;4.73;;;4.60;9.90;;;;;;6289758;28;20747;-54
2022/01/17 12:37:34;;;;;;;5.90;4.33;;;4.60;5.30;;;;;;6281212;28;20387;-57
2022/01/17 12:40:40;;;;;;;5.97;4.60;;;4.70;4.20;;;;;;6282000;28;20218;-57
2022/01/17 12:43:43;;;;;;;5.03;4.00;;;4.90;1.00;;;;;;6281279;28;20234;-56
2022/01/17 12:46:48;;;;;;;5.60;3.90;;;4.80;1.00;;;;;;6283935;28;20245;-57
2022/01/17 12:49:51;;;;;;;4.47;4.10;;;4.70;1.00;;;;;;6284015;28;20233;-56
2022/01/17 12:52:56;;;;;;;4.70;3.97;;;5.00;1.00;;;;;;6278309;28;20241;-57
2022/01/17 12:56:03;;;;;;;7.63;4.57;;;4.70;1.00;;;;;;6283368;28;20718;-57
2022/01/17 12:59:07;;;;;;;6.20;4.33;;;4.80;1.00;;;;;;6282300;28;20315;-57
2022/01/17 13:02:12;;;;;;;4.23;4.00;;;5.00;1.00;;;;;;6277324;28;20230;-58
2022/01/17 13:05:16;;;;;;;6.33;4.33;;;4.90;1.00;;;;;;6282769;28;20230;-54
2022/01/17 13:08:20;;;;;;;5.27;4.00;;;4.90;1.00;;;;;;6282578;28;20310;-55
2022/01/17 13:11:28;;;;;;;6.17;4.30;;;4.90;1.00;;;;;;6274908;28;20238;-56
2022/01/17 13:14:33;;;;;;;5.80;4.20;;;5.30;1.00;;;;;;6276563;28;20733;-57
2022/01/17 13:17:36;;;;;;;5.07;4.00;;;5.30;1.00;;;;;;6277639;28;20463;-57
2022/01/17 13:20:39;;;;;;;7.70;4.50;;;5.00;1.00;;;;;;6276991;28;20516;-57
2022/01/17 13:23:47;;;;;;;11.57;4.37;;;4.90;1.00;;;;;;6274568;28;20245;-56
2022/01/17 13:26:55;;;;;;;11.77;4.53;;;4.70;1.00;;;;;;6284704;28;20336;-57
2022/01/17 13:29:59;;;;;;;4.80;4.40;;;4.60;1.00;;;;;;6278591;28;20785;-58
2022/01/17 13:33:03;;;;;;;6.20;4.10;;;4.50;1.00;;;;;;6281898;28;20367;-57
2022/01/17 13:36:06;;;;;;;9.60;4.43;;;4.60;1.00;;;;;;6284464;28;20455;-55
2022/01/17 13:39:11;;;;;;;6.17;4.00;;;4.90;1.00;;;;;;6282837;28;20320;-55
2022/01/17 13:42:15;;;;;;;8.40;4.03;;;5.00;1.00;;;;;;6273023;28;20672;-57
2022/01/17 13:45:39;;;;;;;5.37;4.07;;;4.90;1.00;;;;;;6282016;28;20248;-56
2022/01/17 13:48:43;;;;;;;4.97;4.27;;;5.00;1.00;;;;;;6281182;28;20394;-58
2022/01/17 13:51:47;;;;;;;7.80;4.53;;;5.10;1.00;;;;;;6287857;28;20320;-57
2022/01/17 13:54:51;;;;;;;7.37;4.30;;;4.80;1.00;;;;;;6288769;28;20331;-57
2022/01/17 13:58:17;;;;;;;7.53;4.17;;;5.20;1.00;;;;;;6281583;28;20743;-57
2022/01/17 14:01:21;;;;;;;6.13;4.73;;;5.10;1.00;;;;;;6280324;28;20259;-57
2022/01/17 14:04:29;;;;;;;7.93;4.37;;;5.10;1.00;;;;;;6283568;28;20241;-57
2022/01/17 14:07:34;;;;;;;11.13;3.80;;;4.90;1.00;;;;;;6278935;28;20226;-56
2022/01/17 14:10:46;;;;;;;7.27;4.40;;;5.00;1.00;;;;;;6281198;28;20229;-56
2022/01/17 14:13:53;;;;;;;9.37;4.30;;;5.00;1.00;;;;;;6283398;28;20591;-57
2022/01/17 14:16:57;;;;;;;8.37;4.37;;;5.00;1.00;;;;;;6279321;28;20658;-57
2022/01/17 14:20:10;;;;;;;8.50;4.20;;;4.90;1.00;;;;;;6280536;28;20441;-57
2022/01/17 14:23:25;;;;;;;7.50;4.70;;;5.10;1.00;;;;;;6281151;28;20496;-56
2022/01/17 14:26:28;;;;;;;9.03;4.83;;;5.00;1.00;;;;;;6280482;28;20229;-58
2022/01/17 14:29:36;;;;;;;8.73;5.17;;;4.80;1.00;;;;;;6279602;28;20388;-58
2022/01/17 14:32:39;;;;;;;10.40;4.47;;;4.80;1.00;;;;;;6282313;28;20442;-56
2022/01/17 14:36:01;;;;;;;12.40;4.73;;;5.00;1.00;;;;;;6279785;28;20763;-57
2022/01/17 14:39:05;;;;;;;11.33;4.83;;;4.70;1.00;;;;;;6279116;28;20611;-57
2022/01/17 14:42:14;;;;;;;13.03;5.40;;;5.00;1.00;;;;;;6281010;28;20278;-57
2022/01/17 14:45:19;;;;;;;8.67;4.90;;;4.90;1.00;;;;;;6279239;28;20367;-57
2022/01/17 14:48:26;;;;;;;13.93;5.17;;;4.70;1.00;;;;;;6278994;28;20326;-57
2022/01/17 14:51:32;;;;;;;10.90;5.10;;;5.00;1.00;;;;;;6272681;28;20233;-56
2022/01/17 14:54:44;;;;;;;10.17;4.63;;;5.00;1.00;;;;;;6286287;28;20505;-55
2022/01/17 15:01:24;;;;;;;9.90;5.40;;;4.70;1.00;;;;;;6283552;28;20244;-57
2022/01/17 15:04:32;;;;;;;16.63;5.40;;;4.70;1.00;;;;;;6284934;28;20241;-57
2022/01/17 15:07:35;;;;;;;13.93;5.10;;;4.70;1.00;;;;;;6285560;28;20613;-57
2022/01/17 15:10:38;;;;;;;11.43;5.43;;;4.70;1.00;;;;;;6286021;28;20911;-56
2022/01/17 15:13:41;;;;;;;7.93;5.23;;;4.60;1.00;;;;;;6277248;28;20233;-56
2022/01/17 15:16:45;;;;;;;13.03;5.30;;;4.70;1.00;;;;;;6279578;28;20706;-57
2022/01/17 15:19:48;;;;;;;14.57;6.23;;;4.60;1.00;;;;;;6294161;28;20237;-57
2022/01/17 15:22:52;;;;;;;9.17;5.60;;;4.70;1.00;;;;;;6278072;28;20771;-57
2022/01/17 15:25:58;;;;;;;8.63;5.20;;;4.70;1.00;;;;;;6275866;28;20419;-56
2022/01/17 15:29:00;;;;;;;7.77;5.03;;;4.30;1.00;;;;;;6281688;28;20659;-58
2022/01/17 15:32:08;;;;;;;16.37;5.50;;;4.60;1.00;;;;;;6275688;28;20240;-55
2022/01/17 15:35:12;;;;;;;13.93;5.63;;;4.70;1.00;;;;;;6279748;28;20328;-57
2022/01/17 15:38:22;;;;;;;9.63;5.40;;;4.60;1.00;;;;;;6278628;28;20238;-57
2022/01/17 15:41:25;;;;;;;10.10;5.23;;;4.50;1.00;;;;;;6287230;28;20244;-56
2022/01/17 15:44:27;;;;;;;9.73;5.37;;;3.80;1.00;;;;;;6282180;28;20709;-56
2022/01/17 15:47:32;;;;;;;9.57;5.77;;;4.30;1.00;;;;;;6285315;28;20341;-56
2022/01/17 15:50:34;;;;;;;8.43;5.20;;;4.20;1.00;;;;;;6285781;28;20387;-56
2022/01/17 15:53:37;;;;;;;7.17;5.30;;;4.50;1.00;;;;;;6284986;28;20308;-57
2022/01/17 15:56:41;;;;;;;14.57;6.13;;;4.30;1.00;;;;;;6285187;28;20235;-55
2022/01/17 15:59:44;;;;;;;11.87;5.83;;;4.40;1.00;;;;;;6291013;28;20265;-55
2022/01/17 16:02:48;;;;;;;8.00;4.90;;;4.40;1.00;;;;;;6284066;28;20732;-57
2022/01/17 16:05:51;;;;;;;15.23;5.40;;;4.20;1.00;;;;;;6279476;28;20233;-57
2022/01/17 16:08:54;;;;;;;8.03;4.60;;;3.90;1.00;;;;;;6286336;28;20230;-56
2022/01/17 16:11:57;;;;;;;13.50;6.13;;;4.00;1.00;;;;;;6274238;28;20890;-56
2022/01/17 16:14:59;;;;;;;13.63;5.63;;;4.20;1.00;;;;;;6276742;28;20289;-56
2022/01/17 16:18:03;;;;;;;9.70;5.40;;;4.20;1.00;;;;;;6282811;28;20226;-57
2022/01/17 16:21:07;;;;;;;15.47;6.13;;;4.10;1.00;;;;;;6282391;28;20722;-55
2022/01/17 16:24:10;;;;;;;12.57;5.80;;;4.20;1.00;;;;;;6282363;28;20312;-56
2022/01/17 16:27:20;;;;;;;10.33;5.00;;;3.90;1.00;;;;;;6285513;28;20241;-55
2022/01/17 16:30:22;;;;;;;12.93;5.23;;;4.00;1.00;;;;;;6285218;28;20378;-56